Terminal Aerodrome Forecast
Issued by NWS

Home | Current Version | Previous Version | Text Only | Print | Product List | Glossary On
Versions: 1 2 3 4 5 6 7 8 9 10 11 12 13 14 15 16 17 18 19 20 21
000
FTUS43 KIND 200500
TAFLAF
TAF
KLAF 200520Z 2006/2106 VRB03KT P6SM SKC
     FM200900 28002KT 1SM BR BCFG SCT010
      TEMPO 2010/2013 1/2SM FG VV002
     FM201500 28008KT P6SM SCT060
     FM210400 20001KT 3SM BR BKN150
      AMD LTD TO CLD VIS AND WIND TIL 201300=

USA.gov is the U.S. government's official web portal to all federal, state and local government web resources and services.